sensor_id;sensor_type;location;lat;lon;timestamp;pressure;altitude;pressure_sealevel;temperature;humidity
55347;BME280;41218;55.700;38.270;2023-07-16T00:02:41;99516.63;;;14.18;70.70
55347;BME280;41218;55.700;38.270;2023-07-16T00:07:42;99521.41;;;14.17;70.55
55347;BME280;41218;55.700;38.270;2023-07-16T00:12:43;99518.63;;;14.17;70.64
55347;BME280;41218;55.700;38.270;2023-07-16T00:17:43;99522.56;;;14.20;70.98
55347;BME280;41218;55.700;38.270;2023-07-16T00:22:44;99522.97;;;14.18;71.04
55347;BME280;41218;55.700;38.270;2023-07-16T00:27:44;99507.91;;;14.12;70.94
55347;BME280;41218;55.700;38.270;2023-07-16T00:32:45;99524.97;;;14.18;70.97
55347;BME280;41218;55.700;38.270;2023-07-16T00:37:45;99511.88;;;14.08;70.90
55347;BME280;41218;55.700;38.270;2023-07-16T00:42:46;99509.88;;;14.12;71.01
55347;BME280;41218;55.700;38.270;2023-07-16T00:47:47;99516.63;;;14.14;71.14
55347;BME280;41218;55.700;38.270;2023-07-16T00:52:47;99531.31;;;14.18;71.02
55347;BME280;41218;55.700;38.270;2023-07-16T00:57:48;99513.06;;;14.10;71.55
55347;BME280;41218;55.700;38.270;2023-07-16T01:02:49;99536.47;;;14.23;71.55
55347;BME280;41218;55.700;38.270;2023-07-16T01:07:55;99542.44;;;14.26;73.27
55347;BME280;41218;55.700;38.270;2023-07-16T01:12:58;99544.41;;;14.29;72.82
55347;BME280;41218;55.700;38.270;2023-07-16T01:17:59;99545.19;;;14.40;73.35
55347;BME280;41218;55.700;38.270;2023-07-16T01:33:45;99561.41;;;14.70;73.73
55347;BME280;41218;55.700;38.270;2023-07-16T01:38:46;99547.91;;;14.69;74.20
55347;BME280;41218;55.700;38.270;2023-07-16T01:43:47;99588.75;;;14.97;74.40
55347;BME280;41218;55.700;38.270;2023-07-16T01:48:47;99550.63;;;14.76;74.64
55347;BME280;41218;55.700;38.270;2023-07-16T01:53:48;99549.06;;;14.75;74.75
55347;BME280;41218;55.700;38.270;2023-07-16T01:58:49;99537.94;;;14.78;75.14
55347;BME280;41218;55.700;38.270;2023-07-16T02:03:49;99554.16;;;14.94;74.73
55347;BME280;41218;55.700;38.270;2023-07-16T02:08:50;99551.00;;;14.92;75.02
55347;BME280;41218;55.700;38.270;2023-07-16T02:13:50;99586.22;;;15.20;75.13
55347;BME280;41218;55.700;38.270;2023-07-16T02:18:51;99562.84;;;15.11;75.32
55347;BME280;41218;55.700;38.270;2023-07-16T02:23:52;99537.81;;;15.00;75.35
55347;BME280;41218;55.700;38.270;2023-07-16T02:28:52;99561.22;;;15.13;75.57
55347;BME280;41218;55.700;38.270;2023-07-16T02:33:53;99561.22;;;15.13;75.58
55347;BME280;41218;55.700;38.270;2023-07-16T02:38:53;99570.72;;;15.23;75.73
55347;BME280;41218;55.700;38.270;2023-07-16T02:44:03;99568.75;;;15.20;76.45
55347;BME280;41218;55.700;38.270;2023-07-16T02:49:03;99598.91;;;15.36;75.88
55347;BME280;41218;55.700;38.270;2023-07-16T02:54:05;99585.75;;;15.36;75.81
55347;BME280;41218;55.700;38.270;2023-07-16T02:59:05;99592.47;;;15.42;75.72
55347;BME280;41218;55.700;38.270;2023-07-16T03:04:06;99573.03;;;15.35;75.81
55347;BME280;41218;55.700;38.270;2023-07-16T03:09:07;99603.97;;;15.55;75.92
55347;BME280;41218;55.700;38.270;2023-07-16T03:14:07;99590.47;;;15.47;75.95
55347;BME280;41218;55.700;38.270;2023-07-16T03:19:08;99597.19;;;15.56;75.94
55347;BME280;41218;55.700;38.270;2023-07-16T03:24:08;99603.53;;;15.60;76.02
55347;BME280;41218;55.700;38.270;2023-07-16T03:29:09;99620.56;;;15.77;76.27
55347;BME280;41218;55.700;38.270;2023-07-16T03:34:10;99605.06;;;15.69;75.88
55347;BME280;41218;55.700;38.270;2023-07-16T03:39:10;99609.84;;;15.75;76.16
55347;BME280;41218;55.700;38.270;2023-07-16T03:44:11;99624.47;;;15.90;76.23
55347;BME280;41218;55.700;38.270;2023-07-16T03:49:12;99598.66;;;15.79;76.25
55347;BME280;41218;55.700;38.270;2023-07-16T03:54:12;99616.88;;;15.94;76.17
55347;BME280;41218;55.700;38.270;2023-07-16T03:59:13;99616.38;;;16.03;76.15
55347;BME280;41218;55.700;38.270;2023-07-16T04:04:13;99617.13;;;16.11;76.12
55347;BME280;41218;55.700;38.270;2023-07-16T04:09:14;99624.22;;;16.19;76.01
55347;BME280;41218;55.700;38.270;2023-07-16T04:14:14;99647.19;;;16.37;76.46
55347;BME280;41218;55.700;38.270;2023-07-16T04:19:15;99623.75;;;16.28;76.12
55347;BME280;41218;55.700;38.270;2023-07-16T04:24:16;99624.13;;;16.30;76.11
55347;BME280;41218;55.700;38.270;2023-07-16T04:29:16;99636.34;;;16.47;75.81
55347;BME280;41218;55.700;38.270;2023-07-16T04:34:17;99663.97;;;16.75;75.75
55347;BME280;41218;55.700;38.270;2023-07-16T04:39:17;99621.53;;;16.53;75.56
55347;BME280;41218;55.700;38.270;2023-07-16T04:44:18;99643.31;;;16.69;75.80
55347;BME280;41218;55.700;38.270;2023-07-16T04:49:18;99603.94;;;16.56;75.74
55347;BME280;41218;55.700;38.270;2023-07-16T04:54:19;99611.81;;;16.69;75.67
55347;BME280;41218;55.700;38.270;2023-07-16T04:59:20;99617.28;;;16.79;75.69
55347;BME280;41218;55.700;38.270;2023-07-16T05:04:20;99644.47;;;17.13;75.27
55347;BME280;41218;55.700;38.270;2023-07-16T05:09:55;99648.41;;;17.16;75.40
55347;BME280;41218;55.700;38.270;2023-07-16T05:14:55;99617.53;;;16.96;75.09
55347;BME280;41218;55.700;38.270;2023-07-16T05:19:56;99658.09;;;17.38;75.04
55347;BME280;41218;55.700;38.270;2023-07-16T05:24:56;99627.97;;;17.22;74.63
55347;BME280;41218;55.700;38.270;2023-07-16T05:29:57;99663.91;;;17.51;74.54
55347;BME280;41218;55.700;38.270;2023-07-16T05:34:57;99630.69;;;17.30;74.55
55347;BME280;41218;55.700;38.270;2023-07-16T05:39:58;99667.03;;;17.57;74.35
55347;BME280;41218;55.700;38.270;2023-07-16T05:44:58;99643.38;;;17.34;74.43
55347;BME280;41218;55.700;38.270;2023-07-16T05:49:59;99660.56;;;17.63;74.31
55347;BME280;41218;55.700;38.270;2023-07-16T05:54:59;99619.81;;;17.35;74.34
55347;BME280;41218;55.700;38.270;2023-07-16T06:00:00;99671.91;;;17.80;74.21
55347;BME280;41218;55.700;38.270;2023-07-16T06:05:00;99629.44;;;17.61;73.96
55347;BME280;41218;55.700;38.270;2023-07-16T06:10:02;99633.34;;;17.68;74.26
55347;BME280;41218;55.700;38.270;2023-07-16T06:15:03;99663.94;;;18.09;73.79
55347;BME280;41218;55.700;38.270;2023-07-16T06:20:04;99641.78;;;17.95;73.65
55347;BME280;41218;55.700;38.270;2023-07-16T06:25:06;99655.59;;;18.06;73.32
55347;BME280;41218;55.700;38.270;2023-07-16T06:30:07;99649.16;;;18.09;73.09
55347;BME280;41218;55.700;38.270;2023-07-16T06:35:14;99673.81;;;18.41;73.08
55347;BME280;41218;55.700;38.270;2023-07-16T06:40:14;99623.16;;;18.08;72.91
55347;BME280;41218;55.700;38.270;2023-07-16T06:45:16;99678.13;;;18.46;72.69
55347;BME280;41218;55.700;38.270;2023-07-16T06:50:18;99678.19;;;18.42;72.66
55347;BME280;41218;55.700;38.270;2023-07-16T06:55:18;99674.84;;;18.51;72.54
55347;BME280;41218;55.700;38.270;2023-07-16T07:00:18;99679.28;;;18.48;72.53
55347;BME280;41218;55.700;38.270;2023-07-16T07:05:19;99681.84;;;18.62;72.10
55347;BME280;41218;55.700;38.270;2023-07-16T07:10:20;99679.09;;;18.59;72.03
55347;BME280;41218;55.700;38.270;2023-07-16T07:15:21;99678.63;;;18.64;72.19
55347;BME280;41218;55.700;38.270;2023-07-16T07:20:21;99674.03;;;18.74;71.79
55347;BME280;41218;55.700;38.270;2023-07-16T07:25:23;99666.00;;;18.76;71.62
55347;BME280;41218;55.700;38.270;2023-07-16T07:30:24;99682.63;;;18.87;71.40
55347;BME280;41218;55.700;38.270;2023-07-16T07:35:24;99689.38;;;18.89;71.45
55347;BME280;41218;55.700;38.270;2023-07-16T07:40:25;99672.22;;;18.87;71.32
55347;BME280;41218;55.700;38.270;2023-07-16T07:45:26;99686.75;;;19.02;71.15
55347;BME280;41218;55.700;38.270;2023-07-16T07:50:26;99668.00;;;18.99;70.83
55347;BME280;41218;55.700;38.270;2023-07-16T07:55:29;99671.22;;;18.97;70.81
55347;BME280;41218;55.700;38.270;2023-07-16T08:00:29;99657.38;;;19.10;70.70
55347;BME280;41218;55.700;38.270;2023-07-16T08:05:31;99669.31;;;19.34;70.14
55347;BME280;41218;55.700;38.270;2023-07-16T08:10:31;99671.16;;;19.41;69.99
55347;BME280;41218;55.700;38.270;2023-07-16T08:15:40;99669.00;;;19.49;69.17
55347;BME280;41218;55.700;38.270;2023-07-16T08:20:41;99664.38;;;19.58;69.20
55347;BME280;41218;55.700;38.270;2023-07-16T08:25:42;99657.63;;;19.56;69.12
55347;BME280;41218;55.700;38.270;2023-07-16T08:30:46;99666.69;;;19.64;68.95
55347;BME280;41218;55.700;38.270;2023-07-16T08:35:47;99680.78;;;19.60;68.63
55347;BME280;41218;55.700;38.270;2023-07-16T08:40:47;99673.59;;;19.59;68.80
55347;BME280;41218;55.700;38.270;2023-07-16T08:45:51;99674.13;;;19.70;68.46
55347;BME280;41218;55.700;38.270;2023-07-16T08:50:52;99666.56;;;19.71;68.13
55347;BME280;41218;55.700;38.270;2023-07-16T08:55:53;99664.72;;;19.80;67.95
55347;BME280;41218;55.700;38.270;2023-07-16T09:00:54;99654.91;;;19.89;67.70
55347;BME280;41218;55.700;38.270;2023-07-16T09:05:55;99668.31;;;20.17;67.69
55347;BME280;41218;55.700;38.270;2023-07-16T09:10:57;99674.06;;;20.43;67.08
55347;BME280;41218;55.700;38.270;2023-07-16T09:15:58;99670.97;;;20.54;66.57
55347;BME280;41218;55.700;38.270;2023-07-16T09:21:00;99670.41;;;20.63;65.95
55347;BME280;41218;55.700;38.270;2023-07-16T09:26:06;99671.19;;;20.63;65.59
55347;BME280;41218;55.700;38.270;2023-07-16T09:31:07;99686.81;;;20.64;65.10
55347;BME280;41218;55.700;38.270;2023-07-16T09:36:08;99677.25;;;20.61;65.00
55347;BME280;41218;55.700;38.270;2023-07-16T09:41:08;99673.00;;;20.70;64.70
55347;BME280;41218;55.700;38.270;2023-07-16T09:46:09;99673.53;;;20.81;64.47
55347;BME280;41218;55.700;38.270;2023-07-16T09:51:11;99666.25;;;20.84;64.22
55347;BME280;41218;55.700;38.270;2023-07-16T09:56:13;99678.25;;;20.84;64.02
55347;BME280;41218;55.700;38.270;2023-07-16T10:01:14;99699.81;;;20.74;63.98
55347;BME280;41218;55.700;38.270;2023-07-16T10:06:14;99685.66;;;20.61;64.01
55347;BME280;41218;55.700;38.270;2023-07-16T10:11:17;99686.56;;;20.58;63.97
55347;BME280;41218;55.700;38.270;2023-07-16T10:16:22;99686.97;;;20.57;63.79
55347;BME280;41218;55.700;38.270;2023-07-16T10:21:24;99686.97;;;20.57;64.03
55347;BME280;41218;55.700;38.270;2023-07-16T10:26:29;99688.94;;;20.60;64.15
55347;BME280;41218;55.700;38.270;2023-07-16T10:31:33;99686.88;;;20.77;64.04
55347;BME280;41218;55.700;38.270;2023-07-16T10:36:41;99687.63;;;20.94;63.05
55347;BME280;41218;55.700;38.270;2023-07-16T10:41:42;99682.09;;;21.07;63.03
55347;BME280;41218;55.700;38.270;2023-07-16T10:46:42;99686.81;;;21.10;63.02
55347;BME280;41218;55.700;38.270;2023-07-16T10:51:43;99679.75;;;21.18;62.44
55347;BME280;41218;55.700;38.270;2023-07-16T10:56:43;99684.03;;;21.23;62.36
55347;BME280;41218;55.700;38.270;2023-07-16T11:01:45;99689.47;;;21.30;61.90
55347;BME280;41218;55.700;38.270;2023-07-16T11:06:45;99681.38;;;21.32;61.81
55347;BME280;41218;55.700;38.270;2023-07-16T11:11:46;99690.06;;;21.37;61.78
55347;BME280;41218;55.700;38.270;2023-07-16T11:16:46;99683.28;;;21.35;61.87
55347;BME280;41218;55.700;38.270;2023-07-16T11:21:49;99682.59;;;21.31;61.48
55347;BME280;41218;55.700;38.270;2023-07-16T11:26:54;99686.44;;;21.37;61.63
55347;BME280;41218;55.700;38.270;2023-07-16T11:31:57;99680.13;;;21.33;61.66
55347;BME280;41218;55.700;38.270;2023-07-16T11:37:10;99690.69;;;21.45;61.59
55347;BME280;41218;55.700;38.270;2023-07-16T11:42:11;99677.91;;;21.40;61.74
55347;BME280;41218;55.700;38.270;2023-07-16T11:47:12;99676.63;;;21.45;61.73
55347;BME280;41218;55.700;38.270;2023-07-16T11:52:12;99654.34;;;21.51;61.66
55347;BME280;41218;55.700;38.270;2023-07-16T11:57:13;99666.41;;;21.64;60.89
55347;BME280;41218;55.700;38.270;2023-07-16T12:02:13;99648.59;;;21.54;60.64
55347;BME280;41218;55.700;38.270;2023-07-16T12:07:14;99676.53;;;21.74;60.76
55347;BME280;41218;55.700;38.270;2023-07-16T12:12:16;99667.19;;;21.77;60.06
55347;BME280;41218;55.700;38.270;2023-07-16T12:17:18;99661.69;;;21.74;59.71
55347;BME280;41218;55.700;38.270;2023-07-16T12:22:19;99624.31;;;21.60;59.56
55347;BME280;41218;55.700;38.270;2023-07-16T12:27:46;99654.28;;;21.80;59.17
55347;BME280;41218;55.700;38.270;2023-07-16T12:33:40;99664.84;;;22.01;58.80
55347;BME280;41218;55.700;38.270;2023-07-16T12:38:42;99638.84;;;21.97;58.96
55347;BME280;41218;55.700;38.270;2023-07-16T12:43:42;99623.75;;;22.04;58.63
55347;BME280;41218;55.700;38.270;2023-07-16T12:48:43;99625.31;;;22.05;58.28
55347;BME280;41218;55.700;38.270;2023-07-16T12:53:44;99621.03;;;22.13;57.79
55347;BME280;41218;55.700;38.270;2023-07-16T12:58:49;99610.00;;;22.19;56.49
55347;BME280;41218;55.700;38.270;2023-07-16T13:03:50;99608.53;;;22.27;56.39
55347;BME280;41218;55.700;38.270;2023-07-16T13:08:50;99596.25;;;22.34;55.76
55347;BME280;41218;55.700;38.270;2023-07-16T13:13:53;99634.56;;;22.66;55.24
55347;BME280;41218;55.700;38.270;2023-07-16T13:18:53;99601.81;;;22.59;55.26
55347;BME280;41218;55.700;38.270;2023-07-16T13:23:55;99612.00;;;22.79;54.73
55347;BME280;41218;55.700;38.270;2023-07-16T13:28:56;99622.09;;;22.89;54.32
55347;BME280;41218;55.700;38.270;2023-07-16T13:33:57;99600.97;;;22.72;54.25
55347;BME280;41218;55.700;38.270;2023-07-16T13:38:57;99630.84;;;22.69;53.82
55347;BME280;41218;55.700;38.270;2023-07-16T13:43:58;99611.41;;;22.49;53.55
55347;BME280;41218;55.700;38.270;2023-07-16T13:48:58;99614.72;;;22.35;53.77
55347;BME280;41218;55.700;38.270;2023-07-16T13:54:00;99644.94;;;22.34;54.54
55347;BME280;41218;55.700;38.270;2023-07-16T13:59:01;99642.66;;;22.29;54.77
55347;BME280;41218;55.700;38.270;2023-07-16T14:04:01;99644.03;;;22.25;54.99
55347;BME280;41218;55.700;38.270;2023-07-16T14:09:02;99640.75;;;22.26;55.31
55347;BME280;41218;55.700;38.270;2023-07-16T14:14:05;99637.59;;;22.37;55.03
55347;BME280;41218;55.700;38.270;2023-07-16T14:19:06;99638.22;;;22.54;54.78
55347;BME280;41218;55.700;38.270;2023-07-16T14:24:08;99618.50;;;22.54;54.95
55347;BME280;41218;55.700;38.270;2023-07-16T14:29:09;99612.53;;;22.52;53.98
55347;BME280;41218;55.700;38.270;2023-07-16T14:34:11;99615.56;;;22.57;52.55
55347;BME280;41218;55.700;38.270;2023-07-16T14:39:12;99621.06;;;22.61;52.58
55347;BME280;41218;55.700;38.270;2023-07-16T14:44:13;99604.09;;;22.52;52.68
55347;BME280;41218;55.700;38.270;2023-07-16T14:49:13;99625.06;;;22.51;53.22
55347;BME280;41218;55.700;38.270;2023-07-16T14:54:14;99631.63;;;22.35;53.24
55347;BME280;41218;55.700;38.270;2023-07-16T14:59:17;99637.38;;;22.18;53.64
55347;BME280;41218;55.700;38.270;2023-07-16T15:04:18;99653.69;;;22.11;54.21
55347;BME280;41218;55.700;38.270;2023-07-16T15:09:20;99661.47;;;22.07;54.53
55347;BME280;41218;55.700;38.270;2023-07-16T15:14:20;99645.03;;;21.92;55.17
55347;BME280;41218;55.700;38.270;2023-07-16T15:19:21;99629.28;;;21.82;55.14
55347;BME280;41218;55.700;38.270;2023-07-16T15:24:21;99676.22;;;22.11;55.18
55347;BME280;41218;55.700;38.270;2023-07-16T15:29:22;99629.97;;;21.86;55.16
55347;BME280;41218;55.700;38.270;2023-07-16T15:34:23;99647.63;;;21.99;55.07
55347;BME280;41218;55.700;38.270;2023-07-16T15:39:24;99636.03;;;21.97;54.95
55347;BME280;41218;55.700;38.270;2023-07-16T15:44:24;99646.13;;;22.08;54.82
55347;BME280;41218;55.700;38.270;2023-07-16T15:49:25;99664.72;;;22.18;54.59
55347;BME280;41218;55.700;38.270;2023-07-16T15:54:26;99692.09;;;22.30;54.16
55347;BME280;41218;55.700;38.270;2023-07-16T15:59:27;99705.94;;;22.37;53.96
55347;BME280;41218;55.700;38.270;2023-07-16T16:04:28;99673.84;;;22.09;53.79
55347;BME280;41218;55.700;38.270;2023-07-16T16:09:29;99666.97;;;21.97;53.77
55347;BME280;41218;55.700;38.270;2023-07-16T16:14:29;99677.44;;;21.97;54.03
55347;BME280;41218;55.700;38.270;2023-07-16T16:19:31;99667.75;;;21.85;54.32
55347;BME280;41218;55.700;38.270;2023-07-16T16:24:32;99682.59;;;21.86;54.16
55347;BME280;41218;55.700;38.270;2023-07-16T16:29:33;99671.94;;;21.68;54.42
55347;BME280;41218;55.700;38.270;2023-07-16T16:34:35;99659.97;;;21.51;54.38
55347;BME280;41218;55.700;38.270;2023-07-16T16:39:36;99668.19;;;21.45;54.78
55347;BME280;41218;55.700;38.270;2023-07-16T16:44:37;99661.94;;;21.37;55.51
55347;BME280;41218;55.700;38.270;2023-07-16T16:49:38;99699.44;;;21.47;56.08
55347;BME280;41218;55.700;38.270;2023-07-16T16:54:41;99669.28;;;21.18;56.30
55347;BME280;41218;55.700;38.270;2023-07-16T16:59:41;99667.91;;;21.10;56.87
55347;BME280;41218;55.700;38.270;2023-07-16T17:04:42;99690.59;;;21.03;57.73
55347;BME280;41218;55.700;38.270;2023-07-16T17:09:44;99700.94;;;21.06;58.03
55347;BME280;41218;55.700;38.270;2023-07-16T17:14:44;99712.31;;;21.03;58.03
55347;BME280;41218;55.700;38.270;2023-07-16T17:19:47;99702.56;;;20.91;58.79
55347;BME280;41218;55.700;38.270;2023-07-16T17:24:49;99717.16;;;20.86;59.17
55347;BME280;41218;55.700;38.270;2023-07-16T17:29:50;99710.69;;;20.72;59.58
55347;BME280;41218;55.700;38.270;2023-07-16T17:39:53;99678.56;;;20.40;59.94
55347;BME280;41218;55.700;38.270;2023-07-16T17:44:53;99699.34;;;20.43;60.45
55347;BME280;41218;55.700;38.270;2023-07-16T17:49:54;99712.31;;;20.37;60.64
55347;BME280;41218;55.700;38.270;2023-07-16T17:54:55;99709.00;;;20.26;61.01
55347;BME280;41218;55.700;38.270;2023-07-16T17:59:55;99711.19;;;20.18;60.94
55347;BME280;41218;55.700;38.270;2023-07-16T18:04:56;99698.63;;;20.06;61.34
55347;BME280;41218;55.700;38.270;2023-07-16T18:09:57;99707.53;;;20.01;61.40
55347;BME280;41218;55.700;38.270;2023-07-16T18:14:57;99695.84;;;19.86;61.47
55347;BME280;41218;55.700;38.270;2023-07-16T18:19:58;99698.03;;;19.78;61.67
55347;BME280;41218;55.700;38.270;2023-07-16T18:24:59;99718.38;;;19.83;61.87
55347;BME280;41218;55.700;38.270;2023-07-16T18:30:03;99725.81;;;19.73;62.30
55347;BME280;41218;55.700;38.270;2023-07-16T18:35:08;99727.13;;;19.65;62.09
55347;BME280;41218;55.700;38.270;2023-07-16T18:40:09;99704.22;;;19.50;62.62
55347;BME280;41218;55.700;38.270;2023-07-16T18:45:10;99732.53;;;19.55;62.84
55347;BME280;41218;55.700;38.270;2023-07-16T18:50:11;99717.59;;;19.42;62.90
55347;BME280;41218;55.700;38.270;2023-07-16T18:55:12;99727.16;;;19.45;63.09
55347;BME280;41218;55.700;38.270;2023-07-16T19:00:13;99729.25;;;19.40;63.31
55347;BME280;41218;55.700;38.270;2023-07-16T19:05:14;99733.25;;;19.39;63.32
55347;BME280;41218;55.700;38.270;2023-07-16T19:10:14;99708.81;;;19.20;63.58
55347;BME280;41218;55.700;38.270;2023-07-16T19:15:15;99727.09;;;19.28;63.64
55347;BME280;41218;55.700;38.270;2023-07-16T19:20:16;99748.06;;;19.40;63.89
55347;BME280;41218;55.700;38.270;2023-07-16T19:25:16;99705.06;;;19.07;64.01
55347;BME280;41218;55.700;38.270;2023-07-16T19:30:18;99701.59;;;18.99;64.01
55347;BME280;41218;55.700;38.270;2023-07-16T19:35:21;99706.44;;;18.98;64.38
55347;BME280;41218;55.700;38.270;2023-07-16T19:40:24;99731.50;;;19.06;64.43
55347;BME280;41218;55.700;38.270;2023-07-16T19:45:24;99735.53;;;19.05;64.34
55347;BME280;41218;55.700;38.270;2023-07-16T19:50:25;99737.97;;;19.02;64.56
55347;BME280;41218;55.700;38.270;2023-07-16T19:55:27;99724.53;;;18.94;64.89
55347;BME280;41218;55.700;38.270;2023-07-16T20:00:28;99737.28;;;18.95;64.81
55347;BME280;41218;55.700;38.270;2023-07-16T20:05:29;99707.56;;;18.77;65.04
55347;BME280;41218;55.700;38.270;2023-07-16T20:10:29;99709.56;;;18.80;65.06
55347;BME280;41218;55.700;38.270;2023-07-16T20:15:30;99729.50;;;18.83;65.18
55347;BME280;41218;55.700;38.270;2023-07-16T20:20:32;99757.25;;;18.97;65.26
55347;BME280;41218;55.700;38.270;2023-07-16T20:25:35;99731.53;;;18.82;65.34
55347;BME280;41218;55.700;38.270;2023-07-16T20:30:36;99737.97;;;18.79;65.21
55347;BME280;41218;55.700;38.270;2023-07-16T20:35:37;99728.94;;;18.68;65.46
55347;BME280;41218;55.700;38.270;2023-07-16T20:40:38;99709.59;;;18.53;65.42
55347;BME280;41218;55.700;38.270;2023-07-16T20:45:38;99738.56;;;18.67;65.68
55347;BME280;41218;55.700;38.270;2023-07-16T20:50:45;99705.69;;;18.47;65.82
55347;BME280;41218;55.700;38.270;2023-07-16T20:55:46;99748.22;;;18.62;65.76
55347;BME280;41218;55.700;38.270;2023-07-16T21:00:46;99716.94;;;18.44;65.97
55347;BME280;41218;55.700;38.270;2023-07-16T21:05:47;99707.81;;;18.39;66.15
55347;BME280;41218;55.700;38.270;2023-07-16T21:10:47;99756.03;;;18.74;65.98
55347;BME280;41218;55.700;38.270;2023-07-16T21:15:48;99759.00;;;18.64;65.84
55347;BME280;41218;55.700;38.270;2023-07-16T21:20:48;99755.34;;;18.67;65.94
55347;BME280;41218;55.700;38.270;2023-07-16T21:25:49;99754.09;;;18.44;66.02
55347;BME280;41218;55.700;38.270;2023-07-16T21:30:49;99754.28;;;18.57;66.07
55347;BME280;41218;55.700;38.270;2023-07-16T21:35:51;99702.66;;;18.11;66.21
55347;BME280;41218;55.700;38.270;2023-07-16T21:40:52;99729.69;;;18.21;66.27
55347;BME280;41218;55.700;38.270;2023-07-16T21:45:52;99755.63;;;18.49;66.33
55347;BME280;41218;55.700;38.270;2023-07-16T21:50:54;99741.41;;;18.39;66.11
55347;BME280;41218;55.700;38.270;2023-07-16T21:55:56;99727.88;;;18.07;66.21
55347;BME280;41218;55.700;38.270;2023-07-16T22:00:56;99725.56;;;18.02;66.60
55347;BME280;41218;55.700;38.270;2023-07-16T22:05:57;99768.28;;;18.33;66.62
55347;BME280;41218;55.700;38.270;2023-07-16T22:10:57;99764.81;;;18.22;66.74
55347;BME280;41218;55.700;38.270;2023-07-16T22:15:58;99767.94;;;18.28;66.70
55347;BME280;41218;55.700;38.270;2023-07-16T22:20:58;99729.28;;;17.92;66.80
55347;BME280;41218;55.700;38.270;2023-07-16T22:25:59;99763.25;;;18.21;66.91
55347;BME280;41218;55.700;38.270;2023-07-16T22:30:59;99729.69;;;17.90;66.82
55347;BME280;41218;55.700;38.270;2023-07-16T22:36:00;99756.97;;;18.13;66.98
55347;BME280;41218;55.700;38.270;2023-07-16T22:41:03;99717.50;;;17.77;67.06
55347;BME280;41218;55.700;38.270;2023-07-16T22:46:04;99709.28;;;17.62;67.30
55347;BME280;41218;55.700;38.270;2023-07-16T22:51:05;99755.94;;;18.00;67.20
55347;BME280;41218;55.700;38.270;2023-07-16T22:56:05;99708.59;;;17.55;67.27
55347;BME280;41218;55.700;38.270;2023-07-16T23:01:06;99760.94;;;17.85;67.29
55347;BME280;41218;55.700;38.270;2023-07-16T23:06:07;99718.28;;;17.47;67.09
55347;BME280;41218;55.700;38.270;2023-07-16T23:11:08;99751.06;;;17.73;67.24
55347;BME280;41218;55.700;38.270;2023-07-16T23:16:08;99727.16;;;17.38;67.46
55347;BME280;41218;55.700;38.270;2023-07-16T23:21:09;99761.63;;;17.62;67.27
55347;BME280;41218;55.700;38.270;2023-07-16T23:26:10;99717.84;;;17.14;67.30
55347;BME280;41218;55.700;38.270;2023-07-16T23:31:10;99766.56;;;17.47;67.15
55347;BME280;41218;55.700;38.270;2023-07-16T23:36:11;99736.25;;;17.11;67.34
55347;BME280;41218;55.700;38.270;2023-07-16T23:41:11;99768.31;;;17.34;67.25
55347;BME280;41218;55.700;38.270;2023-07-16T23:46:12;99735.50;;;17.04;67.30
55347;BME280;41218;55.700;38.270;2023-07-16T23:51:13;99715.38;;;16.81;67.50
55347;BME280;41218;55.700;38.270;2023-07-16T23:56:14;99766.91;;;17.15;67.37
